Terminal Aerodrome Forecast
Issued by NWS Shreveport, LA

Home | Current Version | Previous Version | Text Only | Print | Product List | Glossary On
Versions: 1 2 3 4 5 6 7 8 9 10 11 12 13 14 15
000
FTUS44 KSHV 271100 RRA
TAFMLU
TAF
KMLU 271142Z 2712/2812 14006KT P6SM VCSH BKN019 OVC035
      TEMPO 2712/2716 3SM TSRA BKN008 OVC019CB
     FM271600 15007KT 3SM BR VCSH OVC008
      TEMPO 2716/2720 1SM +TSRA BKN004 OVC014CB
     FM272000 VRB05KT 3SM BR OVC004
      TEMPO 2720/2724 1SM SHRA BR BKN004 OVC010
     FM280000 36010KT 2SM -RA BR OVC004=

USA.gov is the U.S. government's official web portal to all federal, state and local government web resources and services.